createdAt,value
2018-03-15T00:00:53.853Z,18.60
2018-03-15T00:01:53.824Z,17.80
2018-03-15T00:02:53.796Z,17.80
2018-03-15T00:03:53.761Z,18.30
2018-03-15T00:04:53.729Z,17.50
2018-03-15T00:05:53.707Z,17.90
2018-03-15T00:06:53.678Z,18.20
2018-03-15T00:07:53.699Z,17.80
2018-03-15T00:08:53.612Z,19.10
2018-03-15T00:09:53.583Z,19.20
2018-03-15T00:10:53.549Z,18.90
2018-03-15T00:11:53.522Z,19.30
2018-03-15T00:12:53.491Z,17.70
2018-03-15T00:13:53.460Z,19.90
2018-03-15T00:14:53.430Z,18.70
2018-03-15T00:15:53.398Z,19.80
2018-03-15T00:16:53.373Z,19.60
2018-03-15T00:17:53.333Z,18.80
2018-03-15T00:18:53.304Z,17.40
2018-03-15T00:19:53.278Z,19.20
2018-03-15T00:20:53.246Z,19.50
2018-03-15T00:21:53.217Z,18.50
2018-03-15T00:22:53.182Z,18.00
2018-03-15T00:23:53.157Z,18.80
2018-03-15T00:24:53.131Z,19.10
2018-03-15T00:25:53.094Z,19.80
2018-03-15T00:26:53.067Z,19.20
2018-03-15T00:27:53.031Z,18.90
2018-03-15T00:28:53.016Z,18.30
2018-03-15T00:29:52.974Z,18.60
2018-03-15T00:30:52.950Z,19.00
2018-03-15T00:31:53.212Z,19.90
2018-03-15T00:32:52.930Z,18.40
2018-03-15T00:33:52.851Z,19.00
2018-03-15T00:34:52.822Z,18.80
2018-03-15T00:35:52.790Z,19.60
2018-03-15T00:36:52.758Z,18.50
2018-03-15T00:37:53.226Z,19.80
2018-03-15T00:38:52.696Z,20.70
2018-03-15T00:39:52.665Z,19.60
2018-03-15T00:40:52.642Z,20.30
2018-03-15T00:41:52.607Z,19.60
2018-03-15T00:42:52.578Z,22.10
2018-03-15T00:43:52.552Z,20.50
2018-03-15T00:44:52.514Z,22.40
2018-03-15T00:45:52.485Z,20.30
2018-03-15T00:46:52.456Z,19.90
2018-03-15T00:47:52.424Z,20.20
2018-03-15T00:48:52.394Z,21.70
2018-03-15T00:49:52.366Z,20.00
2018-03-15T00:50:52.333Z,20.50
2018-03-15T00:51:52.303Z,20.90
2018-03-15T00:52:52.276Z,19.30
2018-03-15T00:53:52.239Z,20.80
2018-03-15T00:54:52.216Z,20.70
2018-03-15T00:55:52.184Z,20.80
2018-03-15T00:56:52.147Z,20.20
2018-03-15T00:57:52.118Z,21.60
2018-03-15T00:58:52.085Z,20.00
2018-03-15T00:59:52.059Z,22.00
2018-03-15T01:00:52.036Z,21.00
2018-03-15T01:01:51.999Z,21.10
2018-03-15T01:02:51.966Z,20.40
2018-03-15T01:03:51.932Z,21.30
2018-03-15T01:04:51.907Z,20.40
2018-03-15T01:05:51.876Z,20.40
2018-03-15T01:06:51.849Z,20.00
2018-03-15T01:07:51.810Z,19.30
2018-03-15T01:08:51.785Z,21.90
2018-03-15T01:09:51.754Z,18.60
2018-03-15T01:10:51.720Z,18.80
2018-03-15T01:11:51.688Z,18.70
2018-03-15T01:12:51.669Z,19.10
2018-03-15T01:13:51.629Z,20.40
2018-03-15T01:14:51.601Z,16.40
2018-03-15T01:15:51.570Z,19.30
2018-03-15T01:16:51.538Z,19.60
2018-03-15T01:17:51.510Z,18.20
2018-03-15T01:18:51.479Z,18.70
2018-03-15T01:19:51.442Z,18.30
2018-03-15T01:20:51.413Z,19.00
2018-03-15T01:21:51.390Z,17.80
2018-03-15T01:22:51.382Z,18.00
2018-03-15T01:23:51.327Z,18.90
2018-03-15T01:24:51.290Z,19.30
2018-03-15T01:25:51.272Z,17.10
2018-03-15T01:26:51.233Z,17.70
2018-03-15T01:27:51.204Z,20.70
2018-03-15T01:28:51.168Z,18.30
2018-03-15T01:29:51.449Z,20.50
2018-03-15T01:30:51.105Z,18.10
2018-03-15T01:31:51.076Z,19.00
2018-03-15T01:32:51.058Z,18.80
2018-03-15T01:33:51.017Z,19.30
2018-03-15T01:34:50.995Z,18.50
2018-03-15T01:35:50.953Z,18.40
2018-03-15T01:36:50.921Z,19.70
2018-03-15T01:37:50.926Z,18.00
2018-03-15T01:38:50.860Z,18.80
2018-03-15T01:39:50.836Z,20.10
2018-03-15T01:40:50.803Z,20.30
2018-03-15T01:41:50.770Z,20.00
2018-03-15T01:42:50.748Z,20.40
2018-03-15T01:43:50.710Z,20.70
2018-03-15T01:44:50.686Z,20.70
2018-03-15T01:45:50.647Z,21.00
2018-03-15T01:46:50.626Z,22.00
2018-03-15T01:47:50.598Z,21.90
2018-03-15T01:48:50.557Z,21.30
2018-03-15T01:49:50.526Z,23.90
2018-03-15T01:50:50.496Z,22.50
2018-03-15T01:51:50.461Z,21.10
2018-03-15T01:52:50.434Z,21.80
2018-03-15T01:53:50.403Z,25.00
2018-03-15T01:54:50.372Z,25.40
2018-03-15T01:55:50.341Z,28.20
2018-03-15T01:56:50.311Z,28.60
2018-03-15T01:57:50.277Z,25.40
2018-03-15T01:58:50.248Z,26.50
2018-03-15T01:59:50.215Z,24.10
2018-03-15T02:00:50.188Z,28.00
2018-03-15T02:01:50.155Z,26.10
2018-03-15T02:02:50.137Z,26.50
2018-03-15T02:03:50.099Z,29.90
2018-03-15T02:04:50.062Z,31.30
2018-03-15T02:05:50.037Z,26.70
2018-03-15T02:06:50.004Z,28.20
2018-03-15T02:07:49.973Z,29.00
2018-03-15T02:08:49.942Z,30.80
2018-03-15T02:09:49.911Z,30.90
2018-03-15T02:10:49.881Z,27.80
2018-03-15T02:11:49.845Z,27.80
2018-03-15T02:12:49.826Z,30.00
2018-03-15T02:13:49.790Z,29.20
2018-03-15T02:14:49.757Z,27.30
2018-03-15T02:15:49.723Z,24.80
2018-03-15T02:16:49.696Z,22.70
2018-03-15T02:17:49.669Z,22.30
2018-03-15T02:18:49.636Z,22.10
2018-03-15T02:19:49.600Z,19.70
2018-03-15T02:20:49.578Z,19.80
2018-03-15T02:21:49.542Z,17.90
2018-03-15T02:22:49.518Z,19.90
2018-03-15T02:23:49.485Z,18.20
2018-03-15T02:24:49.451Z,17.90
2018-03-15T02:25:49.422Z,18.40
2018-03-15T02:26:49.387Z,15.50
2018-03-15T02:27:49.358Z,16.90
2018-03-15T02:28:49.326Z,17.10
2018-03-15T02:29:49.295Z,16.00
2018-03-15T02:30:49.266Z,19.00
2018-03-15T02:31:49.240Z,19.60
2018-03-15T02:32:49.203Z,16.00
2018-03-15T02:33:49.172Z,17.30
2018-03-15T02:34:49.140Z,16.10
2018-03-15T02:35:49.108Z,17.10
2018-03-15T02:36:49.082Z,14.90
2018-03-15T02:37:49.045Z,17.10
2018-03-15T02:38:49.292Z,16.00
2018-03-15T02:39:48.984Z,16.20
2018-03-15T02:40:48.954Z,16.60
2018-03-15T02:41:48.929Z,16.90
2018-03-15T02:42:48.891Z,15.60
2018-03-15T02:43:48.861Z,16.00
2018-03-15T02:44:48.835Z,14.60
2018-03-15T02:45:49.147Z,15.60
2018-03-15T02:46:48.778Z,13.30
2018-03-15T02:47:48.741Z,12.70
2018-03-15T02:48:48.704Z,14.80
2018-03-15T02:49:48.674Z,13.40
2018-03-15T02:50:48.651Z,14.60
2018-03-15T02:51:48.611Z,12.70
2018-03-15T02:52:48.585Z,14.50
2018-03-15T02:53:48.550Z,14.90
2018-03-15T02:54:48.528Z,14.60
2018-03-15T02:55:48.487Z,15.80
2018-03-15T02:56:48.456Z,15.50
2018-03-15T02:57:48.433Z,15.00
2018-03-15T02:58:48.405Z,14.50
2018-03-15T02:59:48.365Z,14.00
2018-03-15T03:00:48.338Z,14.20
2018-03-15T03:01:48.301Z,13.10
2018-03-15T03:02:48.271Z,14.60
2018-03-15T03:03:48.241Z,15.40
2018-03-15T03:04:48.206Z,16.00
2018-03-15T03:05:48.178Z,14.30
2018-03-15T03:06:48.157Z,14.30
2018-03-15T03:07:48.112Z,14.30
2018-03-15T03:08:48.086Z,13.20
2018-03-15T03:09:48.056Z,12.90
2018-03-15T03:10:48.025Z,13.50
2018-03-15T03:11:47.994Z,13.50
2018-03-15T03:12:47.959Z,12.80
2018-03-15T03:13:47.938Z,13.60
2018-03-15T03:14:47.904Z,12.90
2018-03-15T03:15:47.866Z,13.60
2018-03-15T03:16:47.841Z,11.80
2018-03-15T03:17:47.813Z,13.60
2018-03-15T03:18:47.776Z,12.80
2018-03-15T03:19:47.749Z,12.30
2018-03-15T03:20:47.721Z,11.30
2018-03-15T03:21:47.682Z,12.90
2018-03-15T03:22:47.650Z,12.50
2018-03-15T03:23:47.620Z,12.50
2018-03-15T03:24:47.589Z,11.90
2018-03-15T03:25:47.555Z,12.30
2018-03-15T03:26:47.525Z,12.20
2018-03-15T03:27:47.494Z,11.20
2018-03-15T03:28:47.464Z,13.50
2018-03-15T03:29:47.431Z,12.30
2018-03-15T03:30:47.405Z,11.50
2018-03-15T03:31:47.370Z,11.60
2018-03-15T03:32:47.349Z,11.40
2018-03-15T03:33:47.307Z,11.60
2018-03-15T03:34:47.280Z,10.80
2018-03-15T03:35:47.244Z,11.70
2018-03-15T03:36:47.210Z,11.40
2018-03-15T03:37:47.187Z,11.50
2018-03-15T03:38:47.150Z,12.50
2018-03-15T03:39:47.125Z,11.60
2018-03-15T03:40:47.090Z,11.50
2018-03-15T03:41:47.055Z,11.90
2018-03-15T03:42:47.024Z,13.10
2018-03-15T03:43:47.345Z,12.50
2018-03-15T03:44:46.962Z,12.40
2018-03-15T03:45:46.935Z,11.90
2018-03-15T03:46:46.900Z,12.30
2018-03-15T03:47:46.864Z,11.70
2018-03-15T03:48:46.834Z,11.90
2018-03-15T03:49:46.955Z,11.20
2018-03-15T03:50:46.783Z,13.40
2018-03-15T03:51:46.744Z,11.70
2018-03-15T03:52:46.706Z,10.40
2018-03-15T03:53:46.679Z,9.70
2018-03-15T03:54:46.649Z,10.80
2018-03-15T03:55:46.616Z,9.30
2018-03-15T03:56:46.584Z,9.90
2018-03-15T03:57:46.553Z,11.00
2018-03-15T03:58:46.520Z,11.40
2018-03-15T03:59:46.491Z,11.20
2018-03-15T04:00:46.756Z,10.20
2018-03-15T04:01:46.428Z,11.10
2018-03-15T04:02:46.396Z,10.40
2018-03-15T04:03:46.363Z,11.30
2018-03-15T04:04:46.329Z,10.10
2018-03-15T04:05:46.297Z,10.40
2018-03-15T04:06:46.271Z,9.50
2018-03-15T04:07:46.233Z,9.80
2018-03-15T04:08:46.202Z,10.40
2018-03-15T04:09:46.176Z,10.80
2018-03-15T04:10:46.147Z,9.60
2018-03-15T04:11:46.113Z,10.00
2018-03-15T04:12:46.095Z,9.70
2018-03-15T04:13:46.050Z,9.90
2018-03-15T04:14:46.013Z,10.00
2018-03-15T04:15:46.018Z,10.20
2018-03-15T04:16:45.948Z,10.00
2018-03-15T04:17:45.925Z,10.20
2018-03-15T04:18:46.943Z,9.90
2018-03-15T04:19:45.858Z,10.50
2018-03-15T04:20:45.835Z,10.00
2018-03-15T04:21:45.799Z,10.20
2018-03-15T04:22:45.760Z,10.20
2018-03-15T04:23:45.728Z,11.40
2018-03-15T04:24:45.700Z,11.00
2018-03-15T04:25:45.672Z,10.40
2018-03-15T04:26:45.640Z,11.50
2018-03-15T04:27:45.606Z,11.20
2018-03-15T04:28:45.570Z,11.20
2018-03-15T04:29:45.538Z,11.30
2018-03-15T04:30:45.509Z,10.90
2018-03-15T04:31:45.482Z,12.00
2018-03-15T04:32:45.448Z,12.80
2018-03-15T04:33:45.425Z,12.00
2018-03-15T04:34:45.381Z,10.60
2018-03-15T04:35:45.353Z,11.40
2018-03-15T04:36:45.318Z,12.00
2018-03-15T04:37:45.290Z,12.30
2018-03-15T04:38:45.262Z,12.40
2018-03-15T04:39:45.230Z,11.20
2018-03-15T04:40:45.189Z,11.40
2018-03-15T04:41:45.310Z,12.30
2018-03-15T04:42:45.131Z,10.80
2018-03-15T04:43:45.110Z,11.10
2018-03-15T04:44:45.071Z,11.60
2018-03-15T04:45:45.045Z,11.10
2018-03-15T04:46:45.006Z,12.30
2018-03-15T04:47:44.978Z,11.30
2018-03-15T04:48:44.937Z,12.00
2018-03-15T04:49:44.910Z,12.00
2018-03-15T04:50:44.876Z,11.70
2018-03-15T04:51:44.844Z,12.50
2018-03-15T04:52:44.816Z,12.70
2018-03-15T04:53:44.780Z,12.50
2018-03-15T04:54:44.752Z,13.00
2018-03-15T04:55:44.719Z,13.40
2018-03-15T04:56:44.690Z,12.90
2018-03-15T04:57:44.659Z,13.60
2018-03-15T04:58:44.622Z,13.50
2018-03-15T04:59:44.894Z,13.10
2018-03-15T05:00:44.562Z,16.20
2018-03-15T05:01:44.533Z,14.60
2018-03-15T05:02:44.498Z,14.00
2018-03-15T05:03:44.476Z,13.60
2018-03-15T05:04:44.434Z,14.90
2018-03-15T05:05:44.765Z,15.20
2018-03-15T05:06:44.377Z,14.60
2018-03-15T05:07:44.344Z,14.60
2018-03-15T05:08:44.311Z,15.10
2018-03-15T05:09:44.279Z,13.80
2018-03-15T05:10:44.253Z,15.60
2018-03-15T05:11:44.220Z,15.40
2018-03-15T05:12:44.179Z,15.50
2018-03-15T05:13:44.148Z,15.00
2018-03-15T05:14:44.122Z,15.10
2018-03-15T05:15:44.089Z,15.00
2018-03-15T05:16:44.057Z,15.20
2018-03-15T05:17:44.032Z,14.80
2018-03-15T05:18:44.002Z,15.50
2018-03-15T05:19:43.966Z,15.60
2018-03-15T05:20:43.930Z,16.00
2018-03-15T05:21:43.896Z,15.50
2018-03-15T05:22:43.869Z,14.50
2018-03-15T05:23:43.842Z,15.70
2018-03-15T05:24:43.809Z,15.50
2018-03-15T05:25:43.780Z,15.70
2018-03-15T05:26:43.743Z,16.10
2018-03-15T05:27:43.715Z,15.90
2018-03-15T05:28:43.702Z,17.40
2018-03-15T05:29:43.649Z,14.20
2018-03-15T05:30:43.618Z,17.40
2018-03-15T05:31:43.583Z,16.80
2018-03-15T05:32:43.555Z,15.90
2018-03-15T05:33:43.521Z,15.80
2018-03-15T05:34:43.491Z,16.10
2018-03-15T05:35:43.463Z,16.30
2018-03-15T05:36:43.432Z,16.00
2018-03-15T05:37:43.402Z,16.40
2018-03-15T05:38:43.371Z,17.70
2018-03-15T05:39:43.335Z,17.20
2018-03-15T05:40:43.553Z,17.10
2018-03-15T05:41:43.269Z,14.80
2018-03-15T05:42:43.241Z,17.20
2018-03-15T05:43:43.217Z,17.80
2018-03-15T05:44:43.176Z,18.30
2018-03-15T05:45:43.148Z,16.30
2018-03-15T05:46:43.124Z,17.20
2018-03-15T05:47:43.085Z,16.70
2018-03-15T05:48:43.050Z,17.80
2018-03-15T05:49:43.019Z,15.60
2018-03-15T05:50:42.993Z,15.60
2018-03-15T05:51:42.961Z,15.70
2018-03-15T05:52:42.927Z,16.30
2018-03-15T05:53:42.904Z,16.40
2018-03-15T05:54:42.862Z,16.40
2018-03-15T05:55:42.835Z,15.40
2018-03-15T05:56:42.802Z,15.90
2018-03-15T05:57:42.768Z,16.60
2018-03-15T05:58:43.043Z,16.00
2018-03-15T05:59:42.706Z,16.20
2018-03-15T06:00:42.678Z,16.20
2018-03-15T06:01:42.645Z,16.20
2018-03-15T06:02:42.613Z,16.00
2018-03-15T06:03:42.579Z,15.70
2018-03-15T06:04:42.548Z,16.70
2018-03-15T06:05:42.517Z,15.50
2018-03-15T06:06:42.490Z,16.90
2018-03-15T06:07:42.456Z,16.20
2018-03-15T06:08:42.423Z,16.40
2018-03-15T06:09:42.643Z,17.00
2018-03-15T06:10:42.368Z,15.50
2018-03-15T06:11:42.334Z,16.80
2018-03-15T06:12:42.304Z,15.80
2018-03-15T06:13:42.274Z,16.70
2018-03-15T06:14:42.243Z,16.40
2018-03-15T06:15:42.410Z,17.50
2018-03-15T06:16:42.187Z,15.60
2018-03-15T06:17:42.149Z,16.60
2018-03-15T06:18:42.118Z,16.00
2018-03-15T06:19:42.081Z,14.30
2018-03-15T06:20:42.054Z,15.70
2018-03-15T06:21:42.024Z,14.80
2018-03-15T06:22:41.989Z,14.50
2018-03-15T06:23:41.957Z,15.70
2018-03-15T06:24:41.931Z,15.10
2018-03-15T06:25:41.900Z,13.00
2018-03-15T06:26:41.864Z,14.90
2018-03-15T06:27:41.836Z,14.90
2018-03-15T06:28:41.807Z,14.10
2018-03-15T06:29:41.771Z,13.70
2018-03-15T06:30:41.748Z,13.00
2018-03-15T06:31:41.711Z,13.00
2018-03-15T06:32:41.689Z,13.10
2018-03-15T06:33:41.656Z,11.50
2018-03-15T06:34:41.623Z,10.70
2018-03-15T06:35:41.586Z,10.00
2018-03-15T06:36:41.561Z,10.40
2018-03-15T06:37:41.532Z,9.40
2018-03-15T06:38:41.498Z,9.60
2018-03-15T06:39:41.464Z,10.80
2018-03-15T06:40:41.429Z,9.70
2018-03-15T06:41:41.401Z,9.80
2018-03-15T06:42:41.371Z,10.10
2018-03-15T06:43:41.336Z,9.50
2018-03-15T06:44:41.306Z,10.40
2018-03-15T06:45:41.280Z,10.60
2018-03-15T06:46:41.247Z,11.50
2018-03-15T06:47:41.213Z,10.60
2018-03-15T06:48:41.189Z,9.30
2018-03-15T06:49:41.156Z,10.10
2018-03-15T06:50:41.124Z,9.90
2018-03-15T06:51:41.093Z,9.20
2018-03-15T06:52:41.101Z,9.60
2018-03-15T06:53:41.029Z,8.70
2018-03-15T06:54:41.009Z,9.20
2018-03-15T06:55:40.969Z,8.20
2018-03-15T06:56:40.938Z,8.30
2018-03-15T06:57:40.906Z,6.70
2018-03-15T06:58:40.876Z,8.10
2018-03-15T06:59:40.846Z,8.00
2018-03-15T07:00:40.815Z,8.00
2018-03-15T07:01:40.787Z,8.20
2018-03-15T07:02:40.759Z,8.00
2018-03-15T07:03:40.720Z,8.10
2018-03-15T07:04:40.690Z,8.50
2018-03-15T07:05:40.666Z,8.40
2018-03-15T07:06:40.638Z,8.30
2018-03-15T07:07:40.599Z,8.30
2018-03-15T07:08:40.872Z,8.30
2018-03-15T07:09:40.541Z,8.50
2018-03-15T07:10:40.504Z,8.30
2018-03-15T07:11:40.481Z,8.20
2018-03-15T07:12:40.448Z,7.80
2018-03-15T07:13:40.415Z,7.10
2018-03-15T07:14:40.399Z,7.40
2018-03-15T07:15:40.358Z,7.40
2018-03-15T07:16:40.321Z,7.90
2018-03-15T07:17:40.294Z,7.50
2018-03-15T07:18:40.270Z,8.20
2018-03-15T07:19:40.227Z,7.60
2018-03-15T07:20:40.197Z,8.10
2018-03-15T07:21:40.172Z,7.20
2018-03-15T07:22:40.153Z,6.90
2018-03-15T07:23:40.109Z,7.80
2018-03-15T07:24:40.079Z,7.80
2018-03-15T07:25:40.360Z,7.30
2018-03-15T07:26:40.021Z,7.10
2018-03-15T07:27:39.990Z,7.70
2018-03-15T07:28:39.958Z,7.10
2018-03-15T07:29:39.928Z,7.10
2018-03-15T07:30:39.899Z,7.70
2018-03-15T07:31:39.862Z,7.70
2018-03-15T07:32:39.834Z,7.10
2018-03-15T07:33:39.806Z,6.90
2018-03-15T07:34:39.773Z,7.20
2018-03-15T07:35:39.743Z,7.10
2018-03-15T07:36:39.720Z,7.10
2018-03-15T07:37:39.931Z,7.30
2018-03-15T07:38:39.656Z,7.10
2018-03-15T07:39:39.621Z,7.20
2018-03-15T07:40:39.594Z,6.80
2018-03-15T07:41:39.571Z,7.10
2018-03-15T07:42:39.527Z,7.20
2018-03-15T07:43:39.796Z,7.10
2018-03-15T07:44:39.476Z,7.60
2018-03-15T07:45:39.444Z,7.40
2018-03-15T07:46:39.440Z,7.40
2018-03-15T07:47:39.379Z,8.20
2018-03-15T07:48:39.349Z,7.80
2018-03-15T07:49:39.323Z,7.60
2018-03-15T07:50:39.294Z,7.30
2018-03-15T07:51:39.253Z,8.50
2018-03-15T07:52:39.226Z,7.90
2018-03-15T07:53:39.194Z,8.00
2018-03-15T07:54:39.165Z,7.70
2018-03-15T07:55:39.132Z,8.00
2018-03-15T07:56:39.103Z,7.90
2018-03-15T07:57:39.081Z,7.80
2018-03-15T07:58:39.046Z,8.50
2018-03-15T07:59:39.011Z,8.90
2018-03-15T08:00:38.981Z,8.80
2018-03-15T08:01:38.954Z,8.60
2018-03-15T08:02:38.924Z,8.70
2018-03-15T08:03:38.894Z,8.60
2018-03-15T08:04:38.868Z,9.10
2018-03-15T08:05:38.831Z,9.10
2018-03-15T08:06:38.806Z,10.30
2018-03-15T08:07:38.784Z,9.50
2018-03-15T08:08:38.764Z,9.40
2018-03-15T08:09:38.721Z,9.00
2018-03-15T08:10:38.700Z,9.70
2018-03-15T08:11:38.661Z,9.20
2018-03-15T08:12:38.628Z,9.50
2018-03-15T08:13:38.598Z,10.00
2018-03-15T08:14:38.624Z,10.00
2018-03-15T08:15:38.540Z,9.20
2018-03-15T08:16:38.519Z,9.40
2018-03-15T08:17:38.483Z,9.40
2018-03-15T08:18:38.457Z,9.10
2018-03-15T08:19:38.428Z,9.40
2018-03-15T08:20:38.460Z,9.20
2018-03-15T08:21:38.368Z,9.10
2018-03-15T08:22:38.342Z,9.20
2018-03-15T08:23:38.314Z,9.40
2018-03-15T08:24:38.581Z,8.30
2018-03-15T08:25:38.256Z,8.10
2018-03-15T08:26:38.223Z,9.80
2018-03-15T08:27:38.200Z,9.70
2018-03-15T08:28:38.173Z,9.00
2018-03-15T08:29:38.146Z,9.60
2018-03-15T08:30:38.121Z,10.30
2018-03-15T08:31:38.092Z,9.70
2018-03-15T08:32:38.071Z,9.10
2018-03-15T08:33:38.031Z,9.50
2018-03-15T08:34:38.008Z,9.50
2018-03-15T08:35:37.983Z,8.60
2018-03-15T08:36:37.952Z,9.50
2018-03-15T08:37:37.924Z,9.10
2018-03-15T08:38:37.899Z,9.10
2018-03-15T08:39:37.888Z,9.80
2018-03-15T08:40:37.845Z,9.10
2018-03-15T08:41:37.821Z,9.10
2018-03-15T08:42:37.805Z,9.20
2018-03-15T08:43:37.768Z,9.20
2018-03-15T08:44:37.740Z,9.80
2018-03-15T08:45:37.715Z,9.20
2018-03-15T08:46:37.678Z,9.00
2018-03-15T08:47:37.657Z,9.20
2018-03-15T08:48:37.624Z,8.90
2018-03-15T08:49:37.605Z,9.60
2018-03-15T08:50:37.576Z,8.80
2018-03-15T08:51:37.553Z,8.50
2018-03-15T08:52:37.519Z,8.40
2018-03-15T08:53:37.840Z,8.60
2018-03-15T08:54:37.466Z,8.20
2018-03-15T08:55:37.433Z,8.20
2018-03-15T08:56:37.428Z,7.80
2018-03-15T08:57:37.385Z,8.70
2018-03-15T08:58:37.355Z,9.40
2018-03-15T08:59:37.322Z,8.30
2018-03-15T09:00:37.298Z,7.90
2018-03-15T09:01:37.272Z,8.70
2018-03-15T09:02:37.240Z,9.00
2018-03-15T09:03:37.214Z,8.70
2018-03-15T09:04:37.806Z,9.80
2018-03-15T09:05:37.164Z,9.00
2018-03-15T09:06:37.140Z,9.90
2018-03-15T09:07:37.101Z,9.40
2018-03-15T09:08:37.306Z,10.00
2018-03-15T09:09:37.047Z,9.70
2018-03-15T09:10:37.319Z,9.40
2018-03-15T09:11:36.994Z,9.50
2018-03-15T09:12:36.964Z,9.70
2018-03-15T09:13:36.940Z,10.10
2018-03-15T09:14:36.911Z,10.80
2018-03-15T09:15:36.884Z,8.80
2018-03-15T09:16:36.852Z,9.60
2018-03-15T09:17:36.823Z,9.90
2018-03-15T09:18:36.805Z,10.80
2018-03-15T09:19:36.770Z,11.00
2018-03-15T09:20:36.744Z,10.20
2018-03-15T09:21:36.713Z,11.40
2018-03-15T09:22:36.689Z,9.70
2018-03-15T09:23:36.659Z,10.60
2018-03-15T09:24:36.641Z,12.20
2018-03-15T09:25:36.605Z,11.20
2018-03-15T09:26:36.576Z,11.20
2018-03-15T09:27:36.545Z,12.60
2018-03-15T09:28:36.517Z,11.80
2018-03-15T09:29:36.487Z,11.70
2018-03-15T09:30:36.461Z,11.70
2018-03-15T09:31:36.438Z,11.50
2018-03-15T09:32:36.410Z,11.80
2018-03-15T09:33:36.378Z,12.20
2018-03-15T09:34:36.470Z,11.60
2018-03-15T09:35:36.328Z,11.40
2018-03-15T09:36:36.292Z,12.10
2018-03-15T09:37:36.264Z,11.60
2018-03-15T09:38:36.239Z,12.40
2018-03-15T09:39:36.216Z,12.40
2018-03-15T09:40:36.228Z,11.00
2018-03-15T09:41:36.170Z,11.90
2018-03-15T09:42:36.128Z,12.30
2018-03-15T09:43:36.101Z,12.00
2018-03-15T09:44:36.068Z,11.50
2018-03-15T09:45:36.040Z,12.20
2018-03-15T09:46:36.016Z,11.90
2018-03-15T09:47:35.986Z,12.50
2018-03-15T09:48:35.964Z,13.50
2018-03-15T09:49:35.930Z,11.20
2018-03-15T09:50:35.908Z,12.10
2018-03-15T09:51:35.880Z,12.10
2018-03-15T09:52:35.849Z,11.40
2018-03-15T09:53:35.829Z,12.20
2018-03-15T09:54:35.802Z,11.90
2018-03-15T09:55:35.782Z,11.80
2018-03-15T09:56:35.741Z,12.10
2018-03-15T09:57:35.717Z,12.90
2018-03-15T09:58:35.693Z,12.70
2018-03-15T09:59:35.662Z,12.60
2018-03-15T10:00:35.635Z,13.90
2018-03-15T10:01:35.611Z,13.50
2018-03-15T10:02:35.586Z,13.70
2018-03-15T10:03:35.637Z,13.20
2018-03-15T10:04:35.537Z,13.30
2018-03-15T10:05:35.532Z,13.10
2018-03-15T10:06:35.472Z,12.50
2018-03-15T10:07:35.482Z,13.80
2018-03-15T10:08:35.430Z,12.00
2018-03-15T10:09:35.417Z,13.70
2018-03-15T10:10:35.392Z,13.20
2018-03-15T10:11:35.367Z,12.30
2018-03-15T10:12:35.352Z,12.40
2018-03-15T10:13:35.283Z,13.60
2018-03-15T10:14:35.273Z,13.40
2018-03-15T10:15:35.233Z,13.70
2018-03-15T10:16:35.216Z,14.90
2018-03-15T10:17:35.174Z,13.50
2018-03-15T10:18:35.199Z,12.70
2018-03-15T10:19:35.149Z,14.20
2018-03-15T10:20:35.491Z,15.30
2018-03-15T10:21:35.081Z,14.40
2018-03-15T10:22:35.050Z,14.00
2018-03-15T10:23:35.053Z,13.80
2018-03-15T10:24:35.023Z,14.30
2018-03-15T10:25:34.992Z,15.50
2018-03-15T10:26:35.010Z,14.50
2018-03-15T10:27:34.908Z,14.70
2018-03-15T10:28:34.913Z,17.00
2018-03-15T10:29:34.857Z,16.00
2018-03-15T10:30:34.822Z,15.20
2018-03-15T10:31:34.798Z,15.50
2018-03-15T10:32:34.778Z,15.50
2018-03-15T10:33:34.742Z,15.20
2018-03-15T10:34:34.712Z,14.60
2018-03-15T10:35:34.684Z,15.70
2018-03-15T10:36:34.666Z,16.70
2018-03-15T10:37:34.639Z,16.80
2018-03-15T10:38:34.607Z,15.10
2018-03-15T10:39:34.574Z,15.50
2018-03-15T10:40:34.549Z,15.60
2018-03-15T10:41:34.517Z,16.40
2018-03-15T10:42:34.504Z,18.70
2018-03-15T10:43:34.464Z,16.70
2018-03-15T10:44:34.438Z,16.30
2018-03-15T10:45:34.407Z,15.70
2018-03-15T10:46:34.386Z,16.40
2018-03-15T10:47:34.355Z,16.30
2018-03-15T10:48:34.324Z,18.20
2018-03-15T10:49:34.606Z,18.70
2018-03-15T10:50:34.270Z,17.10
2018-03-15T10:51:34.242Z,15.40
2018-03-15T10:52:34.211Z,18.00
2018-03-15T10:53:34.200Z,19.50
2018-03-15T10:54:34.154Z,18.80
2018-03-15T10:55:34.125Z,18.20
2018-03-15T10:56:34.099Z,19.30
2018-03-15T10:57:34.087Z,18.70
2018-03-15T10:58:34.046Z,19.70
2018-03-15T10:59:34.017Z,17.60
2018-03-15T11:00:33.998Z,19.40
2018-03-15T11:01:33.955Z,17.80
2018-03-15T11:02:33.922Z,19.30
2018-03-15T11:03:33.900Z,17.60
2018-03-15T11:04:33.867Z,18.30
2018-03-15T11:05:33.879Z,18.40
2018-03-15T11:06:33.814Z,19.10
2018-03-15T11:07:34.035Z,18.30
2018-03-15T11:08:33.756Z,18.50
2018-03-15T11:09:33.727Z,19.20
2018-03-15T11:10:33.695Z,17.90
2018-03-15T11:11:33.687Z,18.70
2018-03-15T11:12:33.641Z,18.40
2018-03-15T11:13:33.864Z,18.20
2018-03-15T11:14:33.586Z,19.50
2018-03-15T11:15:33.554Z,18.50
2018-03-15T11:16:33.525Z,18.50
2018-03-15T11:17:33.504Z,18.40
2018-03-15T11:18:33.472Z,18.10
2018-03-15T11:19:33.441Z,18.40
2018-03-15T11:20:33.412Z,18.50
2018-03-15T11:21:33.383Z,18.20
2018-03-15T11:22:33.362Z,18.10
2018-03-15T11:23:33.330Z,19.80
2018-03-15T11:24:33.299Z,17.60
2018-03-15T11:25:33.279Z,18.10
2018-03-15T11:26:33.243Z,18.60
2018-03-15T11:27:33.217Z,17.40
2018-03-15T11:28:33.187Z,17.80
2018-03-15T11:29:33.153Z,17.00
2018-03-15T11:30:33.125Z,17.30
2018-03-15T11:31:33.107Z,15.70
2018-03-15T11:32:33.069Z,16.60
2018-03-15T11:33:33.049Z,16.70
2018-03-15T11:34:33.020Z,16.80
2018-03-15T11:35:32.986Z,16.50
2018-03-15T11:36:32.964Z,15.90
2018-03-15T11:37:32.930Z,15.20
2018-03-15T11:38:32.913Z,16.10
2018-03-15T11:39:32.883Z,17.60
2018-03-15T11:40:32.848Z,16.90
2018-03-15T11:41:32.821Z,15.80
2018-03-15T11:42:32.799Z,16.60
2018-03-15T11:43:32.762Z,15.70
2018-03-15T11:44:32.779Z,16.00
2018-03-15T11:45:32.719Z,15.10
2018-03-15T11:46:32.680Z,15.90
2018-03-15T11:47:32.653Z,16.10
2018-03-15T11:48:32.985Z,17.50
2018-03-15T11:49:32.586Z,15.50
2018-03-15T11:50:32.562Z,15.80
2018-03-15T11:51:32.532Z,15.00
2018-03-15T11:52:32.504Z,16.00
2018-03-15T11:53:32.480Z,15.90
2018-03-15T11:54:32.447Z,16.30
2018-03-15T11:55:32.419Z,16.50
2018-03-15T11:56:32.391Z,16.90
2018-03-15T11:57:32.366Z,18.10
2018-03-15T11:58:32.333Z,17.50
2018-03-15T11:59:32.307Z,18.40
2018-03-15T12:00:32.276Z,18.30
2018-03-15T12:01:32.250Z,20.30
2018-03-15T12:02:32.224Z,21.70
2018-03-15T12:03:32.192Z,23.00
2018-03-15T12:04:32.174Z,21.80
2018-03-15T12:05:32.160Z,22.60
2018-03-15T12:06:32.121Z,21.40
2018-03-15T12:07:32.114Z,22.50
2018-03-15T12:08:32.060Z,22.70
2018-03-15T12:09:32.023Z,23.30
2018-03-15T12:10:31.996Z,20.90
2018-03-15T12:11:31.972Z,20.60
2018-03-15T12:12:31.934Z,21.30
2018-03-15T12:13:31.929Z,22.90
2018-03-15T12:14:31.884Z,22.30
2018-03-15T12:15:31.853Z,24.00
2018-03-15T12:16:31.825Z,22.90
2018-03-15T12:17:31.802Z,23.00
2018-03-15T12:18:32.012Z,22.70
2018-03-15T12:19:31.748Z,22.50
2018-03-15T12:20:31.716Z,22.80
2018-03-15T12:21:31.686Z,22.70
2018-03-15T12:22:31.650Z,23.00
2018-03-15T12:23:31.629Z,21.70
2018-03-15T12:24:31.905Z,21.10
2018-03-15T12:25:31.572Z,21.10
2018-03-15T12:26:31.546Z,21.40
2018-03-15T12:27:31.509Z,19.30
2018-03-15T12:28:31.483Z,22.10
2018-03-15T12:29:31.455Z,20.30
2018-03-15T12:30:31.424Z,20.00
2018-03-15T12:31:31.397Z,22.70
2018-03-15T12:32:31.373Z,22.60
2018-03-15T12:33:31.343Z,21.70
2018-03-15T12:34:31.312Z,23.20
2018-03-15T12:35:31.285Z,21.70
2018-03-15T12:36:31.257Z,23.00
2018-03-15T12:37:31.235Z,22.80
2018-03-15T12:38:31.200Z,21.70
2018-03-15T12:39:31.172Z,22.90
2018-03-15T12:40:31.138Z,22.20
2018-03-15T12:41:31.126Z,21.90
2018-03-15T12:42:31.087Z,21.50
2018-03-15T12:43:31.057Z,22.80
2018-03-15T12:44:31.025Z,21.00
2018-03-15T12:45:30.993Z,20.90
2018-03-15T12:46:30.979Z,21.30
2018-03-15T12:47:30.944Z,20.40
2018-03-15T12:48:30.906Z,21.20
2018-03-15T12:49:30.882Z,22.30
2018-03-15T12:50:30.862Z,20.60
2018-03-15T12:51:30.823Z,21.30
2018-03-15T12:52:30.798Z,20.00
2018-03-15T12:53:31.070Z,21.20
2018-03-15T12:54:30.738Z,19.40
2018-03-15T12:55:30.711Z,19.20
2018-03-15T12:56:30.679Z,19.40
2018-03-15T12:57:30.656Z,19.60